Barbarossa — IBJD — position and weather

sailwx.info

Track history (hours):
 
Tides and Currents Weather Stations Pressure Air Temp Water Temp Dewpoint Dewpoint Depression Visibility Wind Speed Wind Dir Waves Ship Positions

Barbarossa

Last reported at 2017-Mar-25 02:34 UTC. Time now 2017-Mar-30 14:44 UTC.
Position N 17°05' W 061°11'.

Length 294 m; draft 8.1 m.

Type: Passenger vessel. MMSI: 247282900.

Date/timePositionNaut miles runAvg speedWind from/ knotsBaromVisibWave heightAir tempDewpointWater temp
2017-Mar-25 02:34N 17°05' W 061°11'1716.9
2017-Mar-25 01:34N 17°01' W 061°29'1717.1
2017-Mar-25 00:34N 16°57' W 061°46'1716.8
2017-Mar-24 23:34N 16°58' W 062°04'1212.4
2017-Mar-24 22:34N 17°10' W 062°05'1413.7
2017-Mar-24 21:33N 17°07' W 061°51'1 0.5
2017-Mar-24 20:32N 17°07' W 061°51'0 0.0
2017-Mar-24 19:32N 17°07' W 061°51'0 0.0
2017-Mar-24 18:32N 17°07' W 061°51'0 0.0
2017-Mar-24 17:32N 17°07' W 061°51'0 0.0
2017-Mar-24 16:32N 17°07' W 061°51'0 0.0
2017-Mar-24 15:32N 17°07' W 061°51'0 0.0
2017-Mar-24 14:32N 17°07' W 061°51'0 0.0
2017-Mar-24 13:32N 17°07' W 061°51'0 0.0
2017-Mar-24 12:32N 17°07' W 061°51'0 0.0
2017-Mar-24 11:32N 17°07' W 061°51'0 0.0
2017-Mar-24 10:32N 17°07' W 061°51'0 0.0
2017-Mar-24 09:31N 17°07' W 061°51'0 0.0
2017-Mar-24 08:31N 17°07' W 061°51'0 0.1
2017-Mar-24 07:33N 17°07' W 061°51'1212.1
2017-Mar-24 06:33N 17°14' W 062°01'2019.7
2017-Mar-24 05:33N 17°30' W 062°13'2020.3
2017-Mar-24 04:33N 17°49' W 062°22'15 7.3
2017-Mar-24 02:30N 17°43' W 062°37'10 9.9
2017-Mar-24 01:31N 17°39' W 062°46'1311.4
2017-Mar-24 00:22N 17°48' W 062°56'  
2017-Mar-19 05:10N 26°11' W 079°33'1016.4
2017-Mar-19 04:33N 26°09' W 079°44'1615.9
2017-Mar-19 03:33N 26°06' W 080°02'5 4.6
2017-Mar-19 02:32N 26°05' W 080°07'0 0.0
2017-Mar-19 01:32N 26°05' W 080°07'0 0.0
2017-Mar-19 00:32N 26°05' W 080°07'0 0.0
2017-Mar-18 23:32N 26°05' W 080°07'0 0.0
2017-Mar-18 22:32N 26°05' W 080°07'0 0.0
2017-Mar-18 21:32N 26°05' W 080°07'0 0.0
2017-Mar-18 20:32N 26°05' W 080°07'0 0.0
2017-Mar-18 19:32N 26°05' W 080°07'0 0.0
2017-Mar-18 18:32N 26°05' W 080°07'0 0.0
2017-Mar-18 17:32N 26°05' W 080°07'0 0.0
2017-Mar-18 16:32N 26°05' W 080°07'0 0.0
2017-Mar-18 15:32N 26°05' W 080°07'0 0.0
2017-Mar-18 14:32N 26°05' W 080°07'0 0.0
2017-Mar-18 13:32N 26°05' W 080°07'0 0.0
2017-Mar-18 12:32N 26°05' W 080°07'0 0.0
2017-Mar-18 11:32N 26°05' W 080°07'0 0.0
2017-Mar-18 10:32N 26°05' W 080°07'0 0.0
2017-Mar-18 09:33N 26°05' W 080°07'6 5.9
2017-Mar-18 08:33N 26°05' W 080°00'1413.6
2017-Mar-18 07:33N 25°58' W 079°48'1615.7
2017-Mar-18 06:33N 25°44' W 079°40'1716.9
2017-Mar-18 05:31N 25°26' W 079°38'50217.3
2017-Mar-17 00:33N 20°30' W 086°59'2 1.6
2017-Mar-16 23:32N 20°29' W 086°59'0 0.0
2017-Mar-16 22:32N 20°29' W 086°59'0 0.0
2017-Mar-16 21:30N 20°29' W 086°59'0 0.0
2017-Mar-16 20:30N 20°29' W 086°59'0 0.0
2017-Mar-16 19:33N 20°29' W 086°59'0 0.0
2017-Mar-16 18:32N 20°29' W 086°59'0 0.0
2017-Mar-16 17:33N 20°29' W 086°59'0 0.0
2017-Mar-16 16:33N 20°29' W 086°59'0 0.0
2017-Mar-16 15:32N 20°29' W 086°59'0 0.0
2017-Mar-16 14:32N 20°29' W 086°59'0 0.0
2017-Mar-16 13:32N 20°29' W 086°59'1 1.1
2017-Mar-16 12:34N 20°30' W 086°59'  
Track history (hours):
 
Tides and Currents Weather Stations Pressure Air Temp Water Temp Dewpoint Dewpoint Depression Visibility Wind Speed Wind Dir Waves Ship Positions

Barbarossa

Last reported at 2017-Mar-25 02:34 UTC. Time now 2017-Mar-30 14:44 UTC.
Position N 17°05' W 061°11'.

Length 294 m; draft 8.1 m.

Type: Passenger vessel. MMSI: 247282900.

Date/timePositionNaut miles runAvg speedWind from/ knotsBaromVisibWave heightAir tempDewpointWater temp
2017-Mar-25 02:34N 17°05' W 061°11'1716.9
2017-Mar-25 01:34N 17°01' W 061°29'1717.1
2017-Mar-25 00:34N 16°57' W 061°46'1716.8
2017-Mar-24 23:34N 16°58' W 062°04'1212.4
2017-Mar-24 22:34N 17°10' W 062°05'1413.7
2017-Mar-24 21:33N 17°07' W 061°51'1 0.5
2017-Mar-24 20:32N 17°07' W 061°51'0 0.0
2017-Mar-24 19:32N 17°07' W 061°51'0 0.0
2017-Mar-24 18:32N 17°07' W 061°51'0 0.0
2017-Mar-24 17:32N 17°07' W 061°51'0 0.0
2017-Mar-24 16:32N 17°07' W 061°51'0 0.0
2017-Mar-24 15:32N 17°07' W 061°51'0 0.0
2017-Mar-24 14:32N 17°07' W 061°51'0 0.0
2017-Mar-24 13:32N 17°07' W 061°51'0 0.0
2017-Mar-24 12:32N 17°07' W 061°51'0 0.0
2017-Mar-24 11:32N 17°07' W 061°51'0 0.0
2017-Mar-24 10:32N 17°07' W 061°51'0 0.0
2017-Mar-24 09:31N 17°07' W 061°51'0 0.0
2017-Mar-24 08:31N 17°07' W 061°51'0 0.1
2017-Mar-24 07:33N 17°07' W 061°51'1212.1
2017-Mar-24 06:33N 17°14' W 062°01'2019.7
2017-Mar-24 05:33N 17°30' W 062°13'2020.3
2017-Mar-24 04:33N 17°49' W 062°22'15 7.3
2017-Mar-24 02:30N 17°43' W 062°37'10 9.9
2017-Mar-24 01:31N 17°39' W 062°46'1311.4
2017-Mar-24 00:22N 17°48' W 062°56'  
2017-Mar-19 05:10N 26°11' W 079°33'1016.4
2017-Mar-19 04:33N 26°09' W 079°44'1615.9
2017-Mar-19 03:33N 26°06' W 080°02'5 4.6
2017-Mar-19 02:32N 26°05' W 080°07'0 0.0
2017-Mar-19 01:32N 26°05' W 080°07'0 0.0
2017-Mar-19 00:32N 26°05' W 080°07'0 0.0
2017-Mar-18 23:32N 26°05' W 080°07'0 0.0
2017-Mar-18 22:32N 26°05' W 080°07'0 0.0
2017-Mar-18 21:32N 26°05' W 080°07'0 0.0
2017-Mar-18 20:32N 26°05' W 080°07'0 0.0
2017-Mar-18 19:32N 26°05' W 080°07'0 0.0
2017-Mar-18 18:32N 26°05' W 080°07'0 0.0
2017-Mar-18 17:32N 26°05' W 080°07'0 0.0
2017-Mar-18 16:32N 26°05' W 080°07'0 0.0
2017-Mar-18 15:32N 26°05' W 080°07'0 0.0
2017-Mar-18 14:32N 26°05' W 080°07'0 0.0
2017-Mar-18 13:32N 26°05' W 080°07'0 0.0
2017-Mar-18 12:32N 26°05' W 080°07'0 0.0
2017-Mar-18 11:32N 26°05' W 080°07'0 0.0
2017-Mar-18 10:32N 26°05' W 080°07'0 0.0
2017-Mar-18 09:33N 26°05' W 080°07'6 5.9
2017-Mar-18 08:33N 26°05' W 080°00'1413.6
2017-Mar-18 07:33N 25°58' W 079°48'1615.7
2017-Mar-18 06:33N 25°44' W 079°40'1716.9
2017-Mar-18 05:31N 25°26' W 079°38'50217.3
2017-Mar-17 00:33N 20°30' W 086°59'2 1.6
2017-Mar-16 23:32N 20°29' W 086°59'0 0.0
2017-Mar-16 22:32N 20°29' W 086°59'0 0.0
2017-Mar-16 21:30N 20°29' W 086°59'0 0.0
2017-Mar-16 20:30N 20°29' W 086°59'0 0.0
2017-Mar-16 19:33N 20°29' W 086°59'0 0.0
2017-Mar-16 18:32N 20°29' W 086°59'0 0.0
2017-Mar-16 17:33N 20°29' W 086°59'0 0.0
2017-Mar-16 16:33N 20°29' W 086°59'0 0.0
2017-Mar-16 15:32N 20°29' W 086°59'0 0.0
2017-Mar-16 14:32N 20°29' W 086°59'0 0.0
2017-Mar-16 13:32N 20°29' W 086°59'1 1.1
2017-Mar-16 12:34N 20°30' W 086°59'  

Dump ship's entire track history